createdAt,value
2023-01-31T00:00:10.997Z,34.75
2023-01-31T00:02:58.901Z,34.33
2023-01-31T00:05:27.106Z,37.33
2023-01-31T00:07:55.733Z,35.22
2023-01-31T00:10:23.998Z,38.58
2023-01-31T00:12:52.289Z,38.90
2023-01-31T00:15:20.852Z,38.45
2023-01-31T00:17:49.295Z,36.47
2023-01-31T00:20:19.127Z,36.63
2023-01-31T00:22:47.148Z,37.50
2023-01-31T00:25:15.545Z,35.53
2023-01-31T00:27:43.558Z,35.72
2023-01-31T00:30:13.326Z,35.92
2023-01-31T00:32:41.269Z,37.28
2023-01-31T00:35:09.825Z,38.30
2023-01-31T00:37:38.179Z,36.85
2023-01-31T00:40:07.170Z,37.13
2023-01-31T00:42:35.537Z,37.85
2023-01-31T00:45:05.801Z,35.85
2023-01-31T00:47:33.715Z,34.38
2023-01-31T00:50:02.667Z,36.00
2023-01-31T00:52:30.964Z,35.72
2023-01-31T00:54:58.964Z,38.90
2023-01-31T00:57:27.177Z,36.67
2023-01-31T00:59:55.289Z,37.30
2023-01-31T01:02:23.600Z,36.72
2023-01-31T01:04:52.297Z,37.00
2023-01-31T01:07:20.610Z,38.45
2023-01-31T01:09:48.593Z,35.65
2023-01-31T01:12:16.927Z,36.72
2023-01-31T01:14:44.977Z,37.08
2023-01-31T01:17:13.319Z,34.97
2023-01-31T01:19:41.416Z,35.50
2023-01-31T01:22:09.727Z,33.83
2023-01-31T01:24:37.726Z,34.15
2023-01-31T01:27:06.137Z,35.10
2023-01-31T01:29:34.297Z,33.17
2023-01-31T01:32:03.118Z,35.67
2023-01-31T01:34:31.746Z,36.22
2023-01-31T01:37:00.139Z,35.92
2023-01-31T01:39:30.543Z,33.60
2023-01-31T01:41:59.255Z,32.95
2023-01-31T01:44:54.628Z,32.25
2023-01-31T01:47:38.596Z,30.42
2023-01-31T01:50:12.388Z,29.35
2023-01-31T02:52:09.942Z,25.73
2023-01-31T02:54:59.439Z,27.08
2023-01-31T02:57:28.353Z,26.98
2023-01-31T02:59:57.170Z,27.58
2023-01-31T03:02:26.615Z,26.90
2023-01-31T03:04:55.058Z,26.27
2023-01-31T03:07:28.265Z,26.33
2023-01-31T03:10:05.586Z,24.60
2023-01-31T03:12:48.706Z,26.88
2023-01-31T03:15:25.891Z,26.75
2023-01-31T03:18:10.704Z,26.65
2023-01-31T03:20:50.256Z,28.55
2023-01-31T03:23:27.073Z,27.10
2023-01-31T03:26:00.544Z,29.33
2023-01-31T03:28:32.586Z,27.40
2023-01-31T03:31:22.133Z,26.77
2023-01-31T03:34:02.396Z,24.85
2023-01-31T03:37:28.063Z,26.92
2023-01-31T03:40:24.475Z,26.60
2023-01-31T03:43:25.614Z,25.85
2023-01-31T03:46:02.487Z,27.80
2023-01-31T03:48:36.128Z,28.20
2023-01-31T03:51:09.285Z,25.80
2023-01-31T03:53:48.965Z,26.70
2023-01-31T03:56:33.296Z,26.10
2023-01-31T03:59:08.623Z,27.10
2023-01-31T04:01:42.082Z,26.95
2023-01-31T04:04:13.208Z,28.25
2023-01-31T04:06:41.751Z,29.10
2023-01-31T04:09:11.163Z,26.85
2023-01-31T04:11:41.636Z,27.83
2023-01-31T04:14:11.436Z,26.75
2023-01-31T04:16:39.364Z,27.02
2023-01-31T04:19:07.633Z,27.17
2023-01-31T04:21:35.563Z,30.38
2023-01-31T04:24:05.282Z,28.58
2023-01-31T04:26:33.778Z,29.42
2023-01-31T04:29:04.183Z,28.77
2023-01-31T04:31:32.551Z,28.45
2023-01-31T04:34:00.985Z,30.00
2023-01-31T04:36:28.980Z,27.27
2023-01-31T04:38:57.261Z,28.33
2023-01-31T04:41:25.143Z,26.40
2023-01-31T04:43:53.510Z,26.55
2023-01-31T04:46:21.985Z,25.77
2023-01-31T04:48:50.214Z,27.60
2023-01-31T04:51:18.138Z,26.27
2023-01-31T04:53:46.466Z,25.75
2023-01-31T04:56:14.444Z,25.95
2023-01-31T04:58:43.692Z,26.02
2023-01-31T05:01:11.728Z,24.20
2023-01-31T05:03:40.356Z,27.77
2023-01-31T05:06:08.813Z,28.30
2023-01-31T05:08:37.024Z,26.15
2023-01-31T05:11:07.613Z,27.92
2023-01-31T05:13:40.987Z,23.23
2023-01-31T05:16:10.950Z,21.90
2023-01-31T05:18:40.573Z,23.13
2023-01-31T05:21:08.904Z,24.77
2023-01-31T05:23:37.215Z,25.48
2023-01-31T05:26:05.442Z,25.48
2023-01-31T05:28:34.936Z,25.50
2023-01-31T05:31:08.302Z,24.30
2023-01-31T05:36:05.352Z,26.33
2023-01-31T05:38:34.414Z,27.52
2023-01-31T05:41:02.424Z,23.25
2023-01-31T05:43:31.300Z,23.55
2023-01-31T05:45:59.470Z,20.35
2023-01-31T05:48:27.700Z,29.17
2023-01-31T05:50:55.558Z,22.02
2023-01-31T05:53:24.919Z,21.98
2023-01-31T05:55:53.604Z,25.23
2023-01-31T05:58:21.833Z,25.55
2023-01-31T06:00:49.778Z,22.70
2023-01-31T06:03:18.179Z,22.65
2023-01-31T06:05:46.145Z,28.35
2023-01-31T06:08:14.406Z,27.65
2023-01-31T06:10:42.355Z,28.35
2023-01-31T06:13:10.787Z,22.77
2023-01-31T06:15:45.825Z,25.90
2023-01-31T06:18:14.767Z,22.67
2023-01-31T06:20:42.734Z,25.17
2023-01-31T06:23:10.902Z,22.33
2023-01-31T06:25:38.795Z,21.40
2023-01-31T06:28:07.112Z,20.83
2023-01-31T06:30:35.867Z,23.05
2023-01-31T06:33:04.133Z,21.38
2023-01-31T06:35:34.024Z,20.88
2023-01-31T06:38:02.389Z,20.33
2023-01-31T06:40:31.026Z,20.85
2023-01-31T06:43:00.120Z,21.65
2023-01-31T06:45:28.905Z,21.45
2023-01-31T06:47:57.275Z,19.65
2023-01-31T06:50:25.275Z,20.30
2023-01-31T06:52:54.357Z,22.90
2023-01-31T06:55:22.813Z,21.42
2023-01-31T06:57:51.487Z,21.05
2023-01-31T07:00:19.905Z,20.67
2023-01-31T07:02:48.756Z,20.52
2023-01-31T07:05:16.876Z,21.10
2023-01-31T07:07:46.748Z,20.45
2023-01-31T07:10:14.785Z,20.02
2023-01-31T07:12:43.393Z,21.00
2023-01-31T07:15:11.685Z,20.77
2023-01-31T07:17:40.056Z,20.83
2023-01-31T07:20:10.926Z,21.65
2023-01-31T07:22:40.294Z,21.77
2023-01-31T07:25:08.712Z,21.42
2023-01-31T07:27:37.003Z,21.15
2023-01-31T07:30:05.409Z,23.90
2023-01-31T07:32:34.902Z,21.63
2023-01-31T07:35:02.876Z,19.92
2023-01-31T07:37:31.322Z,21.30
2023-01-31T07:39:59.267Z,21.02
2023-01-31T07:42:29.874Z,20.67
2023-01-31T07:45:07.004Z,19.58
2023-01-31T07:47:45.286Z,22.15
2023-01-31T07:50:13.266Z,20.75
2023-01-31T07:52:41.701Z,21.83
2023-01-31T07:55:09.846Z,18.80
2023-01-31T07:57:38.153Z,19.73
2023-01-31T08:00:26.740Z,17.20
2023-01-31T08:03:14.749Z,19.75
2023-01-31T08:05:46.604Z,18.73
2023-01-31T08:08:15.313Z,19.17
2023-01-31T08:10:43.316Z,17.75
2023-01-31T08:13:12.677Z,17.67
2023-01-31T08:15:40.656Z,17.38
2023-01-31T08:18:10.246Z,16.17
2023-01-31T08:20:38.166Z,15.57
2023-01-31T08:23:06.435Z,14.20
2023-01-31T08:25:34.405Z,16.13
2023-01-31T08:28:03.472Z,15.60
2023-01-31T08:30:31.707Z,16.55
2023-01-31T08:33:01.747Z,14.93
2023-01-31T08:35:30.275Z,20.08
2023-01-31T08:38:15.404Z,27.60
2023-01-31T08:40:44.198Z,23.80
2023-01-31T08:43:12.498Z,22.38
2023-01-31T08:45:40.535Z,20.10
2023-01-31T08:48:08.987Z,21.73
2023-01-31T08:50:37.587Z,21.88
2023-01-31T08:53:07.216Z,24.60
2023-01-31T08:55:36.623Z,21.30
2023-01-31T08:58:06.178Z,19.48
2023-01-31T09:00:34.356Z,23.27
2023-01-31T09:03:02.829Z,22.63
2023-01-31T09:05:32.636Z,25.90
2023-01-31T09:08:00.896Z,23.80
2023-01-31T09:10:28.912Z,28.42
2023-01-31T09:13:00.071Z,24.58
2023-01-31T09:15:28.677Z,26.30
2023-01-31T09:17:57.074Z,30.48
2023-01-31T09:20:25.008Z,29.40
2023-01-31T09:22:53.297Z,28.90
2023-01-31T09:25:33.497Z,29.20
2023-01-31T09:28:09.595Z,34.33
2023-01-31T09:30:37.883Z,30.40
2023-01-31T09:33:06.210Z,33.70
2023-01-31T09:35:34.265Z,33.60
2023-01-31T09:38:03.776Z,34.95
2023-01-31T09:40:36.619Z,35.28
2023-01-31T09:43:11.766Z,35.95
2023-01-31T09:45:44.095Z,38.13
2023-01-31T09:48:23.226Z,35.42
2023-01-31T09:50:56.551Z,33.70
2023-01-31T09:53:31.479Z,34.10
2023-01-31T09:56:19.037Z,32.40
2023-01-31T09:58:53.084Z,32.42
2023-01-31T10:04:22.424Z,29.98
2023-01-31T10:07:24.145Z,27.90
2023-01-31T10:10:00.712Z,25.80
2023-01-31T10:12:39.103Z,26.30
2023-01-31T10:15:17.497Z,23.48
2023-01-31T10:17:54.674Z,23.63
2023-01-31T10:20:36.300Z,22.35
2023-01-31T10:23:23.494Z,23.17
2023-01-31T10:25:58.477Z,22.92
2023-01-31T10:28:36.527Z,21.92
2023-01-31T10:31:11.583Z,20.88
2023-01-31T10:33:49.580Z,24.70
2023-01-31T10:36:39.892Z,25.58
2023-01-31T10:39:20.761Z,25.08
2023-01-31T10:42:13.320Z,26.42
2023-01-31T10:44:41.201Z,25.75
2023-01-31T10:47:16.090Z,26.88
2023-01-31T10:49:50.153Z,25.05
2023-01-31T10:52:58.310Z,23.27
2023-01-31T10:55:52.745Z,23.75
2023-01-31T10:58:22.711Z,21.85
2023-01-31T11:00:51.754Z,23.55
2023-01-31T11:03:20.278Z,22.17
2023-01-31T11:05:52.380Z,23.30
2023-01-31T11:08:20.595Z,23.52
2023-01-31T11:10:54.271Z,23.02
2023-01-31T11:13:23.747Z,24.33
2023-01-31T11:15:55.974Z,23.55
2023-01-31T11:18:49.500Z,24.42
2023-01-31T11:21:25.568Z,19.60
2023-01-31T11:24:18.559Z,22.55
2023-01-31T11:27:06.308Z,21.08
2023-01-31T11:29:51.519Z,22.38
2023-01-31T11:32:24.331Z,21.10
2023-01-31T11:35:04.530Z,21.17
2023-01-31T11:37:34.765Z,22.85
2023-01-31T11:40:20.090Z,24.23
2023-01-31T11:42:57.433Z,23.23
2023-01-31T11:45:37.725Z,24.83
2023-01-31T11:48:08.991Z,24.80
2023-01-31T11:50:39.815Z,25.60
2023-01-31T11:53:39.310Z,26.83
2023-01-31T11:56:17.106Z,26.88
2023-01-31T11:58:47.878Z,25.40
2023-01-31T12:01:26.884Z,25.10
2023-01-31T12:04:05.982Z,23.30
2023-01-31T12:06:40.305Z,24.98
2023-01-31T12:09:21.843Z,23.92
2023-01-31T12:12:25.339Z,18.80
2023-01-31T12:15:00.312Z,19.67
2023-01-31T12:17:36.770Z,19.65
2023-01-31T12:20:26.940Z,18.40
2023-01-31T12:23:14.803Z,21.75
2023-01-31T12:25:45.514Z,20.77
2023-01-31T12:28:49.932Z,22.13
2023-01-31T12:31:23.773Z,23.33
2023-01-31T12:34:02.261Z,23.25
2023-01-31T12:37:00.442Z,21.48
2023-01-31T12:40:24.797Z,22.20
2023-01-31T12:43:26.892Z,21.08
2023-01-31T12:46:10.037Z,18.52
2023-01-31T12:48:56.294Z,19.63
2023-01-31T12:51:54.813Z,22.10
2023-01-31T12:54:48.932Z,20.55
2023-01-31T12:57:52.843Z,21.95
2023-01-31T13:00:45.619Z,22.40
2023-01-31T13:03:16.956Z,20.23
2023-01-31T13:05:48.428Z,19.60
2023-01-31T13:08:22.197Z,21.10
2023-01-31T13:11:03.397Z,21.42
2023-01-31T13:13:58.216Z,21.25
2023-01-31T13:16:43.775Z,18.83
2023-01-31T13:19:20.231Z,19.98
2023-01-31T13:21:55.316Z,18.80
2023-01-31T13:24:29.913Z,20.60
2023-01-31T13:27:28.596Z,22.35
2023-01-31T13:30:02.619Z,21.85
2023-01-31T13:35:22.648Z,18.65
2023-01-31T13:37:56.295Z,18.00
2023-01-31T13:40:28.282Z,18.90
2023-01-31T13:43:00.832Z,19.42
2023-01-31T13:45:34.607Z,20.67
2023-01-31T13:48:02.489Z,21.50
2023-01-31T13:50:50.099Z,22.48
2023-01-31T13:53:26.499Z,22.00
2023-01-31T13:55:56.108Z,23.08
2023-01-31T13:58:28.995Z,22.95
2023-01-31T14:01:18.445Z,23.85
2023-01-31T14:04:15.128Z,21.50
2023-01-31T14:07:10.429Z,20.35
2023-01-31T14:09:42.710Z,21.42
2023-01-31T14:12:11.066Z,21.73
2023-01-31T14:14:45.210Z,22.92
2023-01-31T14:17:34.164Z,22.60
2023-01-31T14:20:21.983Z,23.55
2023-01-31T14:23:27.408Z,21.00
2023-01-31T14:25:55.282Z,22.10
2023-01-31T14:28:26.369Z,20.10
2023-01-31T14:30:56.004Z,19.55
2023-01-31T14:36:40.560Z,21.27
2023-01-31T14:39:11.350Z,21.73
2023-01-31T14:42:11.134Z,22.33
2023-01-31T14:44:41.823Z,21.27
2023-01-31T14:47:26.298Z,23.05
2023-01-31T14:50:22.056Z,28.42
2023-01-31T14:52:59.210Z,28.73
2023-01-31T14:55:55.204Z,26.38
2023-01-31T14:58:27.927Z,22.58
2023-01-31T15:01:03.133Z,21.77
2023-01-31T15:03:36.413Z,22.92
2023-01-31T15:06:16.213Z,22.15
2023-01-31T15:08:51.884Z,22.13
2023-01-31T15:11:41.102Z,22.95
2023-01-31T15:14:36.620Z,22.50
2023-01-31T15:17:35.690Z,21.58
2023-01-31T15:20:20.175Z,20.42
2023-01-31T15:22:49.699Z,21.80
2023-01-31T15:25:43.945Z,21.58
2023-01-31T15:30:52.799Z,22.50
2023-01-31T15:33:33.776Z,24.48
2023-01-31T15:36:37.747Z,23.38
2023-01-31T15:39:23.845Z,22.42
2023-01-31T15:41:52.599Z,22.27
2023-01-31T15:44:23.474Z,23.75
2023-01-31T15:46:58.319Z,25.73
2023-01-31T15:49:40.317Z,27.73
2023-01-31T15:52:17.010Z,26.67
2023-01-31T15:54:57.666Z,26.13
2023-01-31T15:57:41.737Z,25.95
2023-01-31T16:00:23.466Z,27.73
2023-01-31T16:03:00.904Z,27.55
2023-01-31T16:05:34.626Z,27.45
2023-01-31T16:08:35.808Z,30.77
2023-01-31T16:11:06.826Z,30.33
2023-01-31T16:13:39.136Z,29.95
2023-01-31T16:16:14.780Z,30.90
2023-01-31T16:18:51.858Z,30.50
2023-01-31T16:21:35.305Z,30.30
2023-01-31T16:24:18.539Z,30.00
2023-01-31T16:27:00.239Z,33.17
2023-01-31T16:29:47.491Z,30.88
2023-01-31T16:32:17.395Z,32.60
2023-01-31T16:34:53.809Z,32.83
2023-01-31T16:37:37.248Z,35.47
2023-01-31T16:40:17.702Z,34.70
2023-01-31T16:42:46.810Z,36.50
2023-01-31T16:45:29.517Z,36.88
2023-01-31T16:48:20.861Z,36.30
2023-01-31T16:50:51.134Z,37.40
2023-01-31T16:53:22.157Z,35.95
2023-01-31T16:56:15.537Z,37.05
2023-01-31T16:58:56.682Z,35.88
2023-01-31T17:01:29.948Z,36.58
2023-01-31T17:04:16.229Z,33.90
2023-01-31T17:06:50.905Z,36.63
2023-01-31T17:09:23.256Z,35.47
2023-01-31T17:11:54.795Z,35.30
2023-01-31T17:14:23.786Z,33.08
2023-01-31T17:16:54.253Z,34.03
2023-01-31T17:19:22.592Z,35.30
2023-01-31T17:21:51.564Z,34.40
2023-01-31T17:24:23.044Z,35.05
2023-01-31T17:26:53.751Z,36.85
2023-01-31T17:29:23.664Z,34.05
2023-01-31T17:31:52.527Z,33.45
2023-01-31T17:34:21.331Z,34.72
2023-01-31T17:36:49.901Z,37.13
2023-01-31T17:39:18.203Z,36.33
2023-01-31T17:41:47.284Z,37.28
2023-01-31T17:44:15.716Z,37.35
2023-01-31T17:46:44.785Z,36.08
2023-01-31T17:49:13.489Z,35.40
2023-01-31T17:51:43.165Z,39.10
2023-01-31T17:54:11.821Z,38.22
2023-01-31T17:56:40.606Z,39.63
2023-01-31T17:59:18.330Z,39.63
2023-01-31T18:01:54.165Z,40.47
2023-01-31T18:04:22.447Z,39.67
2023-01-31T18:06:52.291Z,38.58
2023-01-31T18:09:21.278Z,43.67
2023-01-31T18:11:49.943Z,40.33
2023-01-31T18:14:18.974Z,41.45
2023-01-31T18:16:50.970Z,40.28
2023-01-31T18:19:19.185Z,40.50
2023-01-31T18:21:54.965Z,38.60
2023-01-31T18:24:23.815Z,39.13
2023-01-31T18:26:53.095Z,42.33
2023-01-31T18:29:23.392Z,40.60
2023-01-31T18:31:58.161Z,41.63
2023-01-31T18:34:26.563Z,44.53
2023-01-31T18:36:56.133Z,41.83
2023-01-31T18:39:25.193Z,42.60
2023-01-31T18:41:53.994Z,44.50
2023-01-31T18:44:22.253Z,43.40
2023-01-31T18:46:51.934Z,42.97
2023-01-31T18:49:20.423Z,42.05
2023-01-31T18:51:49.998Z,56.80
2023-01-31T18:54:19.474Z,51.97
2023-01-31T18:56:48.238Z,45.28
2023-01-31T18:59:16.315Z,46.00
2023-01-31T19:01:44.806Z,48.80
2023-01-31T19:04:12.888Z,49.55
2023-01-31T19:06:41.313Z,50.88
2023-01-31T19:09:09.939Z,52.60
2023-01-31T19:11:43.589Z,52.90
2023-01-31T19:14:15.262Z,47.90
2023-01-31T19:16:45.082Z,43.22
2023-01-31T19:19:13.199Z,43.92
2023-01-31T19:21:41.619Z,45.10
2023-01-31T19:24:12.886Z,44.17
2023-01-31T19:26:42.458Z,45.83
2023-01-31T19:29:15.058Z,44.53
2023-01-31T19:31:43.874Z,43.47
2023-01-31T19:34:11.837Z,43.20
2023-01-31T19:36:41.632Z,44.85
2023-01-31T19:39:12.741Z,44.80
2023-01-31T19:41:42.804Z,45.15
2023-01-31T19:44:11.228Z,46.13
2023-01-31T19:46:39.485Z,46.35
2023-01-31T19:49:07.515Z,45.67
2023-01-31T19:51:35.993Z,53.88
2023-01-31T19:54:04.197Z,48.38
2023-01-31T19:56:33.112Z,45.88
2023-01-31T19:59:01.368Z,46.78
2023-01-31T20:01:29.846Z,48.03
2023-01-31T20:03:58.201Z,46.35
2023-01-31T20:06:29.300Z,46.00
2023-01-31T20:09:00.113Z,45.67
2023-01-31T20:11:29.608Z,44.60
2023-01-31T20:13:58.229Z,43.92
2023-01-31T20:16:27.022Z,45.25
2023-01-31T20:18:56.388Z,46.83
2023-01-31T20:21:25.274Z,46.38
2023-01-31T20:23:53.186Z,44.28
2023-01-31T20:26:24.583Z,47.28
2023-01-31T20:28:52.632Z,47.97
2023-01-31T20:31:22.081Z,46.65
2023-01-31T20:33:54.951Z,47.58
2023-01-31T20:36:23.933Z,46.38
2023-01-31T20:38:52.045Z,47.50
2023-01-31T20:41:21.977Z,46.13
2023-01-31T20:43:50.763Z,46.85
2023-01-31T20:46:19.630Z,47.38
2023-01-31T20:48:48.005Z,46.45
2023-01-31T20:51:16.434Z,46.63
2023-01-31T20:53:44.364Z,46.13
2023-01-31T20:56:12.697Z,44.53
2023-01-31T20:58:42.512Z,45.80
2023-01-31T21:01:12.526Z,49.95
2023-01-31T21:03:40.725Z,47.05
2023-01-31T21:06:09.668Z,48.53
2023-01-31T21:08:37.696Z,46.75
2023-01-31T21:11:08.850Z,45.22
2023-01-31T21:13:36.974Z,42.25
2023-01-31T21:16:08.155Z,41.42
2023-01-31T21:18:39.009Z,40.65
2023-01-31T21:21:09.890Z,40.78
2023-01-31T21:23:39.803Z,39.85
2023-01-31T21:26:10.407Z,42.50
2023-01-31T21:28:40.171Z,41.13
2023-01-31T21:31:18.274Z,44.25
2023-01-31T21:33:48.302Z,41.30
2023-01-31T21:36:19.430Z,43.88
2023-01-31T21:38:47.587Z,48.72
2023-01-31T21:41:36.431Z,50.65
2023-01-31T21:44:04.774Z,45.80
2023-01-31T21:46:33.268Z,44.10
2023-01-31T21:49:01.695Z,45.53
2023-01-31T21:51:30.105Z,44.90
2023-01-31T21:53:58.059Z,46.97
2023-01-31T21:56:28.557Z,44.67
2023-01-31T21:58:57.650Z,43.10
2023-01-31T22:01:32.480Z,43.20
2023-01-31T22:04:01.164Z,43.30
2023-01-31T22:06:35.273Z,42.30
2023-01-31T22:11:35.661Z,43.33
2023-01-31T22:14:09.153Z,44.85
2023-01-31T22:19:05.362Z,43.42
2023-01-31T22:21:36.287Z,41.30
2023-01-31T22:24:06.896Z,43.72
2023-01-31T22:26:43.488Z,43.42
2023-01-31T22:29:13.579Z,44.05
2023-01-31T22:31:42.789Z,41.72
2023-01-31T22:34:15.250Z,40.85
2023-01-31T22:39:13.504Z,38.83
2023-01-31T22:41:44.852Z,39.72
2023-01-31T22:44:12.805Z,37.60
2023-01-31T22:46:43.646Z,38.88
2023-01-31T22:49:11.502Z,39.00
2023-01-31T22:51:39.744Z,39.17
2023-01-31T22:54:08.613Z,39.30
2023-01-31T22:56:36.825Z,40.08
2023-01-31T22:59:06.270Z,39.38
2023-01-31T23:01:37.385Z,39.38
2023-01-31T23:04:08.018Z,41.28
2023-01-31T23:06:37.765Z,39.78
2023-01-31T23:09:05.805Z,39.10
2023-01-31T23:11:34.173Z,41.05
2023-01-31T23:14:03.232Z,38.65
2023-01-31T23:16:50.111Z,40.08
2023-01-31T23:19:18.336Z,40.53
2023-01-31T23:21:49.155Z,39.53
2023-01-31T23:24:17.123Z,37.75
2023-01-31T23:26:46.435Z,36.15
2023-01-31T23:29:14.437Z,38.53
2023-01-31T23:31:43.768Z,37.88
2023-01-31T23:34:11.719Z,37.03
2023-01-31T23:36:39.877Z,37.15
2023-01-31T23:39:07.719Z,37.05
2023-01-31T23:41:35.937Z,35.85
2023-01-31T23:44:04.200Z,39.85
2023-01-31T23:46:33.553Z,37.40
2023-01-31T23:49:02.193Z,36.70
2023-01-31T23:51:34.015Z,36.30
2023-01-31T23:54:02.062Z,37.85
2023-01-31T23:56:30.455Z,39.72
2023-01-31T23:58:58.347Z,36.22
